Billings, MT

2:32 PM MDT on May 28, 2015 (GMT -0600)
Downtown Billings | | Change Station
CLOSE
Current Station
Personal Weather Station
Location: Billings, MT
Elevation: 3127 ft
Nearby Weather Stations

Elev 3127 ft 45.78 °N, 108.50 °W | Updated 4 minutes ago

Rain
Rain
55.4 °F
Feels Like 55.4 °F
N
10.1
Wind Variable Wind from North
Gusts 17.0 mph

Today
High -- | Low -- °F
--% Chance of Precip.
Yesterday
High -- | Low -- °F
Precip. -- in
5:30 AM 8:52 PM
Waxing Gibbous, 78% visible
Pressure 30.07 in
Visibility 10.0 miles
Clouds Mostly Cloudy 3700 ft
Overcast 6000 ft
Dew Point 50 °F
Humidity 80%
Rainfall -999.00 in
Snow Depth Not available.
UV 3 out of 12
Pollen 6.60 out of 12
Air Quality Not available.
Flu Activity Sporadic
SPECI KBIL 281955Z 35010KT 10SM -TSRA BKN037CB OVC060 12/10 A3007 RMK AO2 WSHFT 1940 VIS LWR N-NE FRQ LTGICCC OHD TS OHD MOV E P0001 T01220100

More Conditions Fewer Conditions

Pressure 30.07 in
Visibility 10.0 miles
Clouds Mostly Cloudy 3700 ft
Overcast 6000 ft
Dew Point 50 °F
Humidity 80%
Rainfall -999.00 in
Snow Depth Not available.
UV 3 out of 12
Pollen 6.60 out of 12
Air Quality Not available.
Flu Activity Sporadic
SPECI KBIL 281955Z 35010KT 10SM -TSRA BKN037CB OVC060 12/10 A3007 RMK AO2 WSHFT 1940 VIS LWR N-NE FRQ LTGICCC OHD TS OHD MOV E P0001 T01220100

More Conditions Fewer Conditions

10-Day Weather Forecast

Almanac

Astronomy

May. 28, 2015 Rise Set
Actual Time
Civil Twilight
Nautical Twilight
Astronomical Twilight
Moon
Length of Visible Light
Length of Day
Tomorrow will be .
, % of the Moon is Illuminated

Today's Extremes

State Highs State Lows

Community

WunderPhotos

Upload Photos

1,825,056 photos uploaded!

WunderBlogs® & News

Nearby

Air Quality

  Air Quality AQ Index Pollutant
Not available.

Snow Depth

Station Depth Elevation

Earthquake Activity

City Distance Mag. Time & Date
Minimum magnitude displayed is 2.5.

Coastal Water Temperatures

Place Temperature

Stations

Nearby Weather Stations

Station Location Temp. Windchill Dew Point Humidity Wind Precip. Elev Updated Type